sensor_id;sensor_type;location;lat;lon;timestamp;pressure;altitude;pressure_sealevel;temperature;humidity
21182;BME280;10749;46.296;7.524;2023-05-20T00:01:14;94773.91;;;14.47;52.57
21182;BME280;10749;46.296;7.524;2023-05-20T00:03:40;94778.41;;;14.47;52.76
21182;BME280;10749;46.296;7.524;2023-05-20T00:06:05;94774.31;;;14.44;52.81
21182;BME280;10749;46.296;7.524;2023-05-20T00:08:30;94775.75;;;14.40;53.12
21182;BME280;10749;46.296;7.524;2023-05-20T00:10:55;94782.09;;;14.39;52.77
21182;BME280;10749;46.296;7.524;2023-05-20T00:13:21;94784.50;;;14.34;53.07
21182;BME280;10749;46.296;7.524;2023-05-20T00:15:48;94784.50;;;14.34;53.32
21182;BME280;10749;46.296;7.524;2023-05-20T00:18:13;94781.63;;;14.29;53.35
21182;BME280;10749;46.296;7.524;2023-05-20T00:20:38;94787.59;;;14.31;53.49
21182;BME280;10749;46.296;7.524;2023-05-20T00:23:03;94781.03;;;14.27;53.42
21182;BME280;10749;46.296;7.524;2023-05-20T00:25:29;94784.72;;;14.26;53.57
21182;BME280;10749;46.296;7.524;2023-05-20T00:27:56;94778.97;;;14.16;52.97
21182;BME280;10749;46.296;7.524;2023-05-20T00:30:21;94778.34;;;14.14;52.90
21182;BME280;10749;46.296;7.524;2023-05-20T00:32:47;94775.47;;;14.09;53.37
21182;BME280;10749;46.296;7.524;2023-05-20T00:35:12;94774.88;;;14.07;53.76
21182;BME280;10749;46.296;7.524;2023-05-20T00:37:38;94765.03;;;14.01;53.76
21182;BME280;10749;46.296;7.524;2023-05-20T00:40:03;94766.44;;;13.97;53.70
21182;BME280;10749;46.296;7.524;2023-05-20T00:42:29;94769.31;;;13.95;54.10
21182;BME280;10749;46.296;7.524;2023-05-20T00:44:55;94774.19;;;13.92;54.21
21182;BME280;10749;46.296;7.524;2023-05-20T00:47:29;94772.59;;;13.91;53.83
21182;BME280;10749;46.296;7.524;2023-05-20T00:49:57;94764.78;;;13.89;54.12
21182;BME280;10749;46.296;7.524;2023-05-20T00:52:22;94763.56;;;13.85;54.05
21182;BME280;10749;46.296;7.524;2023-05-20T00:54:48;94755.78;;;13.83;54.31
21182;BME280;10749;46.296;7.524;2023-05-20T00:57:15;94756.19;;;13.80;54.39
21182;BME280;10749;46.296;7.524;2023-05-20T00:59:41;94755.34;;;13.80;54.13
21182;BME280;10749;46.296;7.524;2023-05-20T01:02:07;94754.16;;;13.82;54.32
21182;BME280;10749;46.296;7.524;2023-05-20T01:04:32;94751.50;;;13.82;54.43
21182;BME280;10749;46.296;7.524;2023-05-20T01:06:59;94760.91;;;13.85;54.23
21182;BME280;10749;46.296;7.524;2023-05-20T01:09:26;94764.38;;;13.85;54.28
21182;BME280;10749;46.296;7.524;2023-05-20T01:12:08;94760.28;;;13.83;54.05
21182;BME280;10749;46.296;7.524;2023-05-20T01:14:46;94756.38;;;13.79;54.06
21182;BME280;10749;46.296;7.524;2023-05-20T01:17:14;94763.56;;;13.78;54.10
21182;BME280;10749;46.296;7.524;2023-05-20T01:19:42;94759.44;;;13.76;54.39
21182;BME280;10749;46.296;7.524;2023-05-20T01:22:09;94763.75;;;13.77;54.30
21182;BME280;10749;46.296;7.524;2023-05-20T01:24:43;94768.66;;;13.73;54.12
21182;BME280;10749;46.296;7.524;2023-05-20T01:27:11;94762.50;;;13.66;54.07
21182;BME280;10749;46.296;7.524;2023-05-20T01:29:38;94763.28;;;13.60;54.50
21182;BME280;10749;46.296;7.524;2023-05-20T01:32:10;94755.72;;;13.57;54.57
21182;BME280;10749;46.296;7.524;2023-05-20T01:34:37;94756.13;;;13.61;54.38
21182;BME280;10749;46.296;7.524;2023-05-20T01:37:03;94757.97;;;13.60;54.27
21182;BME280;10749;46.296;7.524;2023-05-20T01:39:31;94752.84;;;13.59;54.67
21182;BME280;10749;46.296;7.524;2023-05-20T01:41:59;94758.16;;;13.59;54.83
21182;BME280;10749;46.296;7.524;2023-05-20T01:44:24;94754.06;;;13.56;54.83
21182;BME280;10749;46.296;7.524;2023-05-20T01:46:50;94748.56;;;13.58;54.65
21182;BME280;10749;46.296;7.524;2023-05-20T01:49:15;94734.03;;;13.60;54.76
21182;BME280;10749;46.296;7.524;2023-05-20T01:51:41;94739.78;;;13.57;55.04
21182;BME280;10749;46.296;7.524;2023-05-20T01:54:06;94730.34;;;13.55;54.79
21182;BME280;10749;46.296;7.524;2023-05-20T01:56:31;94728.28;;;13.50;55.21
21182;BME280;10749;46.296;7.524;2023-05-20T01:58:56;94718.03;;;13.47;54.78
21182;BME280;10749;46.296;7.524;2023-05-20T02:01:22;94726.03;;;13.47;54.11
21182;BME280;10749;46.296;7.524;2023-05-20T02:03:47;94718.03;;;13.47;54.43
21182;BME280;10749;46.296;7.524;2023-05-20T02:06:12;94726.84;;;13.41;54.77
21182;BME280;10749;46.296;7.524;2023-05-20T02:08:38;94716.56;;;13.38;54.63
21182;BME280;10749;46.296;7.524;2023-05-20T02:11:03;94712.69;;;13.34;54.82
21182;BME280;10749;46.296;7.524;2023-05-20T02:13:28;94712.31;;;13.37;54.90
21182;BME280;10749;46.296;7.524;2023-05-20T02:15:54;94716.16;;;13.34;55.15
21182;BME280;10749;46.296;7.524;2023-05-20T02:18:19;94716.56;;;13.31;55.19
21182;BME280;10749;46.296;7.524;2023-05-20T02:20:44;94720.84;;;13.26;55.07
21182;BME280;10749;46.296;7.524;2023-05-20T02:23:09;94720.84;;;13.26;55.49
21182;BME280;10749;46.296;7.524;2023-05-20T02:25:35;94715.50;;;13.19;55.34
21182;BME280;10749;46.296;7.524;2023-05-20T02:28:00;94718.75;;;13.15;55.39
21182;BME280;10749;46.296;7.524;2023-05-20T02:30:29;94718.13;;;13.13;55.32
21182;BME280;10749;46.296;7.524;2023-05-20T02:32:55;94724.47;;;13.12;55.51
21182;BME280;10749;46.296;7.524;2023-05-20T02:35:20;94712.94;;;13.05;55.63
21182;BME280;10749;46.296;7.524;2023-05-20T02:37:45;94717.47;;;13.04;55.47
21182;BME280;10749;46.296;7.524;2023-05-20T02:40:12;94707.84;;;13.03;55.41
21182;BME280;10749;46.296;7.524;2023-05-20T02:42:38;94708.03;;;13.02;55.44
21182;BME280;10749;46.296;7.524;2023-05-20T02:45:03;94699.06;;;13.03;55.73
21182;BME280;10749;46.296;7.524;2023-05-20T02:47:29;94701.31;;;13.06;55.42
21182;BME280;10749;46.296;7.524;2023-05-20T02:49:54;94699.25;;;13.01;55.34
21182;BME280;10749;46.296;7.524;2023-05-20T02:52:19;94705.13;;;12.96;55.63
21182;BME280;10749;46.296;7.524;2023-05-20T02:54:46;94707.19;;;12.94;55.64
21182;BME280;10749;46.296;7.524;2023-05-20T02:57:11;94702.06;;;12.93;55.16
21182;BME280;10749;46.296;7.524;2023-05-20T02:59:36;94701.88;;;12.94;55.13
21182;BME280;10749;46.296;7.524;2023-05-20T03:02:01;94711.25;;;12.90;55.74
21182;BME280;10749;46.296;7.524;2023-05-20T03:04:27;94713.69;;;12.85;55.81
21182;BME280;10749;46.296;7.524;2023-05-20T03:06:52;94712.25;;;12.89;55.50
21182;BME280;10749;46.296;7.524;2023-05-20T03:09:17;94709.38;;;12.84;55.39
21182;BME280;10749;46.296;7.524;2023-05-20T03:11:44;94715.72;;;12.83;55.54
21182;BME280;10749;46.296;7.524;2023-05-20T03:14:09;94708.38;;;12.85;55.34
21182;BME280;10749;46.296;7.524;2023-05-20T03:16:35;94705.09;;;12.83;55.52
21182;BME280;10749;46.296;7.524;2023-05-20T03:19:00;94701.41;;;12.84;55.71
21182;BME280;10749;46.296;7.524;2023-05-20T03:21:26;94701.41;;;12.84;55.87
21182;BME280;10749;46.296;7.524;2023-05-20T03:23:52;94704.28;;;12.83;56.09
21182;BME280;10749;46.296;7.524;2023-05-20T03:26:17;94701.19;;;12.79;56.06
21182;BME280;10749;46.296;7.524;2023-05-20T03:28:42;94693.22;;;12.79;55.94
21182;BME280;10749;46.296;7.524;2023-05-20T03:31:08;94694.03;;;12.80;55.89
21182;BME280;10749;46.296;7.524;2023-05-20T03:33:33;94692.41;;;12.79;55.74
21182;BME280;10749;46.296;7.524;2023-05-20T03:35:59;94686.88;;;12.80;55.87
21182;BME280;10749;46.296;7.524;2023-05-20T03:38:26;94684.81;;;12.76;56.08
21182;BME280;10749;46.296;7.524;2023-05-20T03:40:51;94678.06;;;12.73;56.22
21182;BME280;10749;46.296;7.524;2023-05-20T03:43:16;94684.78;;;12.69;55.99
21182;BME280;10749;46.296;7.524;2023-05-20T03:45:41;94682.97;;;12.70;55.50
21182;BME280;10749;46.296;7.524;2023-05-20T03:48:07;94690.28;;;12.68;55.36
21182;BME280;10749;46.296;7.524;2023-05-20T03:50:32;94690.28;;;12.68;55.34
21182;BME280;10749;46.296;7.524;2023-05-20T03:52:57;94691.09;;;12.68;55.14
21182;BME280;10749;46.296;7.524;2023-05-20T03:55:23;94695.59;;;12.68;55.51
21182;BME280;10749;46.296;7.524;2023-05-20T03:57:48;94696.81;;;12.65;56.23
21182;BME280;10749;46.296;7.524;2023-05-20T04:00:14;94694.56;;;12.62;55.92
21182;BME280;10749;46.296;7.524;2023-05-20T04:02:41;94689.84;;;12.64;55.76
21182;BME280;10749;46.296;7.524;2023-05-20T04:05:06;94687.84;;;12.66;55.78
21182;BME280;10749;46.296;7.524;2023-05-20T04:07:33;94683.53;;;12.65;56.20
21182;BME280;10749;46.296;7.524;2023-05-20T04:09:58;94679.25;;;12.64;56.33
21182;BME280;10749;46.296;7.524;2023-05-20T04:12:24;94680.50;;;12.68;56.52
21182;BME280;10749;46.296;7.524;2023-05-20T04:14:56;94683.78;;;12.70;56.55
21182;BME280;10749;46.296;7.524;2023-05-20T04:17:22;94682.16;;;12.76;56.44
21182;BME280;10749;46.296;7.524;2023-05-20T04:19:47;94691.97;;;12.75;56.06
21182;BME280;10749;46.296;7.524;2023-05-20T04:22:12;94692.34;;;12.72;56.24
21182;BME280;10749;46.296;7.524;2023-05-20T04:24:38;94696.00;;;12.71;56.09
21182;BME280;10749;46.296;7.524;2023-05-20T04:27:03;94698.06;;;12.69;55.99
21182;BME280;10749;46.296;7.524;2023-05-20T04:29:29;94697.44;;;12.67;56.45
21182;BME280;10749;46.296;7.524;2023-05-20T04:31:58;94697.66;;;12.72;56.41
21182;BME280;10749;46.296;7.524;2023-05-20T04:34:28;94690.75;;;12.78;56.49
21182;BME280;10749;46.296;7.524;2023-05-20T04:36:54;94686.88;;;12.80;56.81
21182;BME280;10749;46.296;7.524;2023-05-20T04:39:21;94687.53;;;12.82;57.05
21182;BME280;10749;46.296;7.524;2023-05-20T04:41:47;94692.44;;;12.85;56.83
21182;BME280;10749;46.296;7.524;2023-05-20T04:44:13;94697.97;;;12.90;56.54
21182;BME280;10749;46.296;7.524;2023-05-20T04:46:38;94696.13;;;12.91;55.79
21182;BME280;10749;46.296;7.524;2023-05-20T04:49:04;94694.91;;;12.93;55.90
21182;BME280;10749;46.296;7.524;2023-05-20T04:51:29;94696.56;;;12.94;56.53
21182;BME280;10749;46.296;7.524;2023-05-20T04:53:55;94692.91;;;12.95;56.73
21182;BME280;10749;46.296;7.524;2023-05-20T04:56:20;94699.47;;;13.00;56.42
21182;BME280;10749;46.296;7.524;2023-05-20T04:58:45;94694.75;;;13.02;56.28
21182;BME280;10749;46.296;7.524;2023-05-20T05:01:11;94692.09;;;13.02;56.28
21182;BME280;10749;46.296;7.524;2023-05-20T05:03:36;94690.69;;;13.06;56.52
21182;BME280;10749;46.296;7.524;2023-05-20T05:06:01;94696.00;;;13.06;57.01
21182;BME280;10749;46.296;7.524;2023-05-20T05:08:26;94689.25;;;13.10;56.47
21182;BME280;10749;46.296;7.524;2023-05-20T05:10:52;94690.53;;;13.14;56.34
21182;BME280;10749;46.296;7.524;2023-05-20T05:13:17;94692.81;;;13.17;56.78
21182;BME280;10749;46.296;7.524;2023-05-20T05:15:43;94684.84;;;13.23;56.71
21182;BME280;10749;46.296;7.524;2023-05-20T05:18:08;94681.19;;;13.31;56.40
21182;BME280;10749;46.296;7.524;2023-05-20T05:20:33;94671.38;;;13.31;56.57
21182;BME280;10749;46.296;7.524;2023-05-20T05:22:58;94674.66;;;13.33;56.69
21182;BME280;10749;46.296;7.524;2023-05-20T05:25:24;94672.63;;;13.42;57.09
21182;BME280;10749;46.296;7.524;2023-05-20T05:27:49;94678.56;;;13.51;56.94
21182;BME280;10749;46.296;7.524;2023-05-20T05:30:15;94672.25;;;13.58;57.08
21182;BME280;10749;46.296;7.524;2023-05-20T05:32:40;94679.63;;;13.63;57.30
21182;BME280;10749;46.296;7.524;2023-05-20T05:35:05;94666.53;;;13.68;57.11
21182;BME280;10749;46.296;7.524;2023-05-20T05:37:31;94667.78;;;13.72;57.00
21182;BME280;10749;46.296;7.524;2023-05-20T05:39:56;94675.78;;;13.78;57.06
21182;BME280;10749;46.296;7.524;2023-05-20T05:42:21;94678.03;;;13.81;56.99
21182;BME280;10749;46.296;7.524;2023-05-20T05:44:47;94671.06;;;13.80;57.19
21182;BME280;10749;46.296;7.524;2023-05-20T05:47:13;94675.59;;;13.86;56.86
21182;BME280;10749;46.296;7.524;2023-05-20T05:49:38;94683.16;;;13.90;57.25
21182;BME280;10749;46.296;7.524;2023-05-20T05:52:04;94678.25;;;13.93;57.21
21182;BME280;10749;46.296;7.524;2023-05-20T05:54:29;94684.19;;;14.02;57.24
21182;BME280;10749;46.296;7.524;2023-05-20T05:56:54;94678.44;;;14.05;56.68
21182;BME280;10749;46.296;7.524;2023-05-20T05:59:23;94677.22;;;14.01;57.32
21182;BME280;10749;46.296;7.524;2023-05-20T06:01:48;94672.28;;;14.04;57.45
21182;BME280;10749;46.296;7.524;2023-05-20T06:04:13;94672.91;;;14.13;57.55
21182;BME280;10749;46.296;7.524;2023-05-20T06:06:39;94670.47;;;14.11;57.29
21182;BME280;10749;46.296;7.524;2023-05-20T06:09:05;94679.69;;;14.15;57.23
21182;BME280;10749;46.296;7.524;2023-05-20T06:11:30;94676.19;;;14.15;57.39
21182;BME280;10749;46.296;7.524;2023-05-20T06:13:56;94666.56;;;14.20;57.55
21182;BME280;10749;46.296;7.524;2023-05-20T06:16:21;94672.31;;;14.24;57.02
21182;BME280;10749;46.296;7.524;2023-05-20T06:18:46;94673.34;;;14.23;57.49
21182;BME280;10749;46.296;7.524;2023-05-20T06:21:14;94671.88;;;14.27;57.19
21182;BME280;10749;46.296;7.524;2023-05-20T06:23:39;94673.53;;;14.28;57.31
21182;BME280;10749;46.296;7.524;2023-05-20T06:26:04;94675.34;;;14.34;57.52
21182;BME280;10749;46.296;7.524;2023-05-20T06:28:30;94679.28;;;14.38;57.68
21182;BME280;10749;46.296;7.524;2023-05-20T06:30:56;94660.03;;;14.43;57.65
21182;BME280;10749;46.296;7.524;2023-05-20T06:33:25;94663.72;;;14.48;57.27
21182;BME280;10749;46.296;7.524;2023-05-20T06:35:52;94659.59;;;14.52;57.53
21182;BME280;10749;46.296;7.524;2023-05-20T06:38:18;94655.50;;;14.56;57.64
21182;BME280;10749;46.296;7.524;2023-05-20T06:40:43;94660.41;;;14.59;57.50
21182;BME280;10749;46.296;7.524;2023-05-20T06:43:08;94658.34;;;14.68;57.38
21182;BME280;10749;46.296;7.524;2023-05-20T06:45:33;94654.63;;;14.75;57.70
21182;BME280;10749;46.296;7.524;2023-05-20T06:47:59;94649.06;;;14.84;57.34
21182;BME280;10749;46.296;7.524;2023-05-20T06:50:24;94644.13;;;14.87;57.70
21182;BME280;10749;46.296;7.524;2023-05-20T06:52:49;94643.50;;;14.92;57.77
21182;BME280;10749;46.296;7.524;2023-05-20T06:55:15;94645.28;;;15.04;57.68
21182;BME280;10749;46.296;7.524;2023-05-20T06:57:40;94648.28;;;15.21;57.87
21182;BME280;10749;46.296;7.524;2023-05-20T07:00:06;94644.31;;;15.37;57.72
21182;BME280;10749;46.296;7.524;2023-05-20T07:02:32;94644.47;;;15.48;57.82
21182;BME280;10749;46.296;7.524;2023-05-20T07:04:57;94642.72;;;15.67;56.98
21182;BME280;10749;46.296;7.524;2023-05-20T07:07:23;94642.66;;;15.74;57.27
21182;BME280;10749;46.296;7.524;2023-05-20T07:09:48;94638.56;;;15.78;57.27
21182;BME280;10749;46.296;7.524;2023-05-20T07:12:13;94643.38;;;15.94;57.46
21182;BME280;10749;46.296;7.524;2023-05-20T07:14:39;94629.31;;;16.05;57.67
21182;BME280;10749;46.296;7.524;2023-05-20T07:17:04;94639.44;;;16.21;57.41
21182;BME280;10749;46.296;7.524;2023-05-20T07:19:30;94620.91;;;16.26;57.58
21182;BME280;10749;46.296;7.524;2023-05-20T07:21:55;94625.97;;;16.34;57.45
21182;BME280;10749;46.296;7.524;2023-05-20T07:24:21;94621.25;;;16.54;57.08
21182;BME280;10749;46.296;7.524;2023-05-20T07:26:46;94620.72;;;16.46;57.14
21182;BME280;10749;46.296;7.524;2023-05-20T07:29:11;94614.88;;;16.55;56.84
21182;BME280;10749;46.296;7.524;2023-05-20T07:31:37;94611.78;;;16.77;56.73
21182;BME280;10749;46.296;7.524;2023-05-20T07:34:02;94605.53;;;16.83;56.67
21182;BME280;10749;46.296;7.524;2023-05-20T07:36:28;94607.75;;;17.04;56.46
21182;BME280;10749;46.296;7.524;2023-05-20T07:38:54;94605.06;;;17.22;56.48
21182;BME280;10749;46.296;7.524;2023-05-20T07:41:19;94591.19;;;17.14;56.13
21182;BME280;10749;46.296;7.524;2023-05-20T07:43:45;94592.16;;;17.01;56.08
21182;BME280;10749;46.296;7.524;2023-05-20T07:46:10;94582.81;;;16.92;55.98
21182;BME280;10749;46.296;7.524;2023-05-20T07:48:36;94578.66;;;16.96;55.87
21182;BME280;10749;46.296;7.524;2023-05-20T07:51:01;94575.66;;;17.04;55.85
21182;BME280;10749;46.296;7.524;2023-05-20T07:53:27;94582.06;;;17.03;55.82
21182;BME280;10749;46.296;7.524;2023-05-20T07:55:52;94571.50;;;17.08;55.76
21182;BME280;10749;46.296;7.524;2023-05-20T07:58:17;94572.63;;;17.00;55.50
21182;BME280;10749;46.296;7.524;2023-05-20T08:00:43;94571.47;;;16.96;55.61
21182;BME280;10749;46.296;7.524;2023-05-20T08:03:09;94564.25;;;16.97;55.71
21182;BME280;10749;46.296;7.524;2023-05-20T08:05:37;94555.94;;;17.05;55.61
21182;BME280;10749;46.296;7.524;2023-05-20T08:08:03;94553.00;;;17.06;55.36
21182;BME280;10749;46.296;7.524;2023-05-20T08:10:29;94560.81;;;17.08;55.61
21182;BME280;10749;46.296;7.524;2023-05-20T08:12:55;94552.56;;;17.10;55.35
21182;BME280;10749;46.296;7.524;2023-05-20T08:15:21;94551.50;;;17.11;55.27
21182;BME280;10749;46.296;7.524;2023-05-20T08:17:46;94552.47;;;17.16;55.08
21182;BME280;10749;46.296;7.524;2023-05-20T08:20:12;94562.72;;;17.19;55.05
21182;BME280;10749;46.296;7.524;2023-05-20T08:22:37;94572.41;;;17.32;55.01
21182;BME280;10749;46.296;7.524;2023-05-20T08:25:03;94568.16;;;17.42;54.79
21182;BME280;10749;46.296;7.524;2023-05-20T08:27:28;94568.66;;;17.51;54.71
21182;BME280;10749;46.296;7.524;2023-05-20T08:29:54;94563.41;;;17.56;54.97
21182;BME280;10749;46.296;7.524;2023-05-20T08:32:19;94550.19;;;17.61;54.83
21182;BME280;10749;46.296;7.524;2023-05-20T08:34:45;94542.66;;;17.70;54.90
21182;BME280;10749;46.296;7.524;2023-05-20T08:37:10;94541.63;;;17.82;54.90
21182;BME280;10749;46.296;7.524;2023-05-20T08:39:35;94543.59;;;17.98;55.20
21182;BME280;10749;46.296;7.524;2023-05-20T08:42:00;94538.97;;;18.17;55.28
21182;BME280;10749;46.296;7.524;2023-05-20T08:44:27;94553.16;;;18.29;54.69
21182;BME280;10749;46.296;7.524;2023-05-20T08:46:53;94551.84;;;18.43;54.28
21182;BME280;10749;46.296;7.524;2023-05-20T08:49:20;94538.56;;;18.49;54.06
21182;BME280;10749;46.296;7.524;2023-05-20T08:51:45;94540.34;;;18.66;54.03
21182;BME280;10749;46.296;7.524;2023-05-20T08:54:13;94541.94;;;18.79;54.00
21182;BME280;10749;46.296;7.524;2023-05-20T08:56:41;94544.03;;;18.77;53.85
21182;BME280;10749;46.296;7.524;2023-05-20T08:59:08;94533.09;;;18.67;53.21
21182;BME280;10749;46.296;7.524;2023-05-20T09:01:40;94529.56;;;18.78;53.47
21182;BME280;10749;46.296;7.524;2023-05-20T09:04:05;94528.25;;;18.92;53.51
21182;BME280;10749;46.296;7.524;2023-05-20T09:06:41;94517.81;;;19.07;53.80
21182;BME280;10749;46.296;7.524;2023-05-20T09:09:09;94523.00;;;19.25;53.68
21182;BME280;10749;46.296;7.524;2023-05-20T09:11:35;94517.19;;;19.45;53.79
21182;BME280;10749;46.296;7.524;2023-05-20T09:14:00;94512.41;;;19.64;53.99
21182;BME280;10749;46.296;7.524;2023-05-20T09:16:25;94512.28;;;19.87;53.85
21182;BME280;10749;46.296;7.524;2023-05-20T09:18:54;94512.41;;;19.97;53.28
21182;BME280;10749;46.296;7.524;2023-05-20T09:21:25;94507.13;;;20.02;52.96
21182;BME280;10749;46.296;7.524;2023-05-20T09:23:51;94503.63;;;19.85;52.52
21182;BME280;10749;46.296;7.524;2023-05-20T09:26:18;94500.06;;;19.63;51.44
21182;BME280;10749;46.296;7.524;2023-05-20T09:28:43;94483.28;;;19.72;51.56
21182;BME280;10749;46.296;7.524;2023-05-20T09:31:08;94487.19;;;19.81;51.20
21182;BME280;10749;46.296;7.524;2023-05-20T09:33:35;94487.50;;;20.02;51.89
21182;BME280;10749;46.296;7.524;2023-05-20T09:36:08;94481.31;;;20.01;51.09
21182;BME280;10749;46.296;7.524;2023-05-20T09:38:36;94479.34;;;20.13;51.52
21182;BME280;10749;46.296;7.524;2023-05-20T09:41:23;94476.09;;;20.11;51.08
21182;BME280;10749;46.296;7.524;2023-05-20T09:43:51;94470.03;;;20.21;50.44
21182;BME280;10749;46.296;7.524;2023-05-20T09:46:17;94473.28;;;20.40;51.35
21182;BME280;10749;46.296;7.524;2023-05-20T09:48:44;94480.06;;;20.64;50.74
21182;BME280;10749;46.296;7.524;2023-05-20T09:51:10;94472.63;;;20.49;48.86
21182;BME280;10749;46.296;7.524;2023-05-20T09:53:37;94464.44;;;20.61;48.77
21182;BME280;10749;46.296;7.524;2023-05-20T09:56:02;94466.38;;;20.65;47.90
21182;BME280;10749;46.296;7.524;2023-05-20T09:58:28;94468.94;;;20.77;47.62
21182;BME280;10749;46.296;7.524;2023-05-20T10:00:54;94470.16;;;20.91;49.05
21182;BME280;10749;46.296;7.524;2023-05-20T10:03:23;94476.16;;;20.98;47.98
21182;BME280;10749;46.296;7.524;2023-05-20T10:06:27;94471.91;;;21.02;47.49
21182;BME280;10749;46.296;7.524;2023-05-20T10:09:21;94472.91;;;21.45;48.72
21182;BME280;10749;46.296;7.524;2023-05-20T10:12:28;94460.56;;;21.49;48.98
21182;BME280;10749;46.296;7.524;2023-05-20T10:18:35;94431.19;;;21.84;48.15
21182;BME280;10749;46.296;7.524;2023-05-20T10:21:01;94438.06;;;21.65;46.97
21182;BME280;10749;46.296;7.524;2023-05-20T10:23:29;94419.47;;;21.63;47.86
21182;BME280;10749;46.296;7.524;2023-05-20T10:25:57;94412.16;;;21.59;46.73
21182;BME280;10749;46.296;7.524;2023-05-20T10:28:29;94418.22;;;21.76;47.53
21182;BME280;10749;46.296;7.524;2023-05-20T10:30:56;94391.44;;;21.96;48.14
21182;BME280;10749;46.296;7.524;2023-05-20T10:33:22;94413.69;;;22.24;47.87
21182;BME280;10749;46.296;7.524;2023-05-20T10:35:49;94434.28;;;22.50;47.85
21182;BME280;10749;46.296;7.524;2023-05-20T10:38:16;94426.78;;;22.52;47.42
21182;BME280;10749;46.296;7.524;2023-05-20T10:40:42;94413.81;;;22.54;47.33
21182;BME280;10749;46.296;7.524;2023-05-20T10:43:26;94414.50;;;22.81;47.31
21182;BME280;10749;46.296;7.524;2023-05-20T10:45:54;94414.56;;;23.02;46.63
21182;BME280;10749;46.296;7.524;2023-05-20T10:48:27;94401.34;;;23.20;46.83
21182;BME280;10749;46.296;7.524;2023-05-20T10:50:56;94401.91;;;23.37;47.20
21182;BME280;10749;46.296;7.524;2023-05-20T10:53:23;94404.91;;;23.46;46.44
21182;BME280;10749;46.296;7.524;2023-05-20T10:55:50;94385.44;;;23.44;45.36
21182;BME280;10749;46.296;7.524;2023-05-20T10:58:16;94384.66;;;23.43;44.71
21182;BME280;10749;46.296;7.524;2023-05-20T11:00:43;94385.19;;;23.51;44.91
21182;BME280;10749;46.296;7.524;2023-05-20T11:03:08;94396.00;;;23.51;44.76
21182;BME280;10749;46.296;7.524;2023-05-20T11:05:38;94387.06;;;23.45;45.02
21182;BME280;10749;46.296;7.524;2023-05-20T11:08:08;94395.69;;;23.27;44.02
21182;BME280;10749;46.296;7.524;2023-05-20T11:10:34;94394.06;;;23.26;43.59
21182;BME280;10749;46.296;7.524;2023-05-20T11:13:01;94400.25;;;23.16;43.62
21182;BME280;10749;46.296;7.524;2023-05-20T11:15:27;94373.25;;;23.16;41.07
21182;BME280;10749;46.296;7.524;2023-05-20T11:17:57;94394.56;;;23.02;41.69
21182;BME280;10749;46.296;7.524;2023-05-20T11:20:25;94396.78;;;23.31;42.73
21182;BME280;10749;46.296;7.524;2023-05-20T11:22:52;94388.69;;;23.61;43.14
21182;BME280;10749;46.296;7.524;2023-05-20T11:25:17;94397.63;;;23.72;41.89
21182;BME280;10749;46.296;7.524;2023-05-20T11:27:44;94390.03;;;23.79;42.01
21182;BME280;10749;46.296;7.524;2023-05-20T11:30:12;94394.06;;;23.86;41.58
21182;BME280;10749;46.296;7.524;2023-05-20T11:32:40;94386.47;;;24.09;41.44
21182;BME280;10749;46.296;7.524;2023-05-20T11:35:06;94382.66;;;24.30;41.45
21182;BME280;10749;46.296;7.524;2023-05-20T11:37:35;94390.94;;;24.64;41.57
21182;BME280;10749;46.296;7.524;2023-05-20T11:40:04;94385.63;;;24.98;42.01
21182;BME280;10749;46.296;7.524;2023-05-20T11:42:34;94387.44;;;25.12;41.79
21182;BME280;10749;46.296;7.524;2023-05-20T11:45:00;94385.34;;;24.99;40.97
21182;BME280;10749;46.296;7.524;2023-05-20T11:47:26;94392.19;;;24.87;40.42
21182;BME280;10749;46.296;7.524;2023-05-20T11:49:51;94399.72;;;24.90;40.82
21182;BME280;10749;46.296;7.524;2023-05-20T11:52:17;94386.06;;;25.10;40.35
21182;BME280;10749;46.296;7.524;2023-05-20T11:54:42;94393.22;;;25.35;40.58
21182;BME280;10749;46.296;7.524;2023-05-20T11:57:10;94388.34;;;25.37;39.91
21182;BME280;10749;46.296;7.524;2023-05-20T11:59:35;94393.03;;;25.26;39.39
21182;BME280;10749;46.296;7.524;2023-05-20T12:02:01;94382.25;;;25.21;39.64
21182;BME280;10749;46.296;7.524;2023-05-20T12:04:26;94384.66;;;25.22;39.72
21182;BME280;10749;46.296;7.524;2023-05-20T12:06:51;94373.91;;;25.12;39.33
21182;BME280;10749;46.296;7.524;2023-05-20T12:09:17;94355.22;;;25.11;39.44
21182;BME280;10749;46.296;7.524;2023-05-20T12:11:42;94371.00;;;24.99;39.00
21182;BME280;10749;46.296;7.524;2023-05-20T12:14:09;94370.53;;;24.76;39.00
21182;BME280;10749;46.296;7.524;2023-05-20T12:16:35;94370.28;;;24.78;38.09
21182;BME280;10749;46.296;7.524;2023-05-20T12:19:01;94378.63;;;24.92;38.36
21182;BME280;10749;46.296;7.524;2023-05-20T12:21:29;94388.75;;;25.15;38.68
21182;BME280;10749;46.296;7.524;2023-05-20T12:23:55;94384.34;;;25.29;38.28
21182;BME280;10749;46.296;7.524;2023-05-20T12:26:25;94386.53;;;25.22;38.30
21182;BME280;10749;46.296;7.524;2023-05-20T12:28:51;94380.06;;;25.18;37.53
21182;BME280;10749;46.296;7.524;2023-05-20T12:31:17;94375.03;;;25.01;37.62
21182;BME280;10749;46.296;7.524;2023-05-20T12:33:42;94379.72;;;24.86;37.38
21182;BME280;10749;46.296;7.524;2023-05-20T12:36:07;94383.53;;;24.85;37.60
21182;BME280;10749;46.296;7.524;2023-05-20T12:38:33;94370.97;;;25.04;37.49
21182;BME280;10749;46.296;7.524;2023-05-20T12:40:58;94378.97;;;25.19;37.32
21182;BME280;10749;46.296;7.524;2023-05-20T12:43:24;94378.84;;;25.39;37.35
21182;BME280;10749;46.296;7.524;2023-05-20T12:45:50;94386.81;;;25.59;37.51
21182;BME280;10749;46.296;7.524;2023-05-20T12:48:16;94395.31;;;25.43;35.54
21182;BME280;10749;46.296;7.524;2023-05-20T12:50:41;94377.31;;;25.28;35.96
21182;BME280;10749;46.296;7.524;2023-05-20T12:53:06;94374.09;;;25.26;36.27
21182;BME280;10749;46.296;7.524;2023-05-20T12:55:32;94398.50;;;25.16;36.61
21182;BME280;10749;46.296;7.524;2023-05-20T12:57:57;94387.13;;;25.14;36.54
21182;BME280;10749;46.296;7.524;2023-05-20T13:00:23;94397.72;;;25.10;36.25